createdAt,value
2023-01-26T00:01:19.196Z,10.10
2023-01-26T00:03:46.497Z,10.20
2023-01-26T00:06:15.801Z,10.90
2023-01-26T00:08:45.098Z,10.40
2023-01-26T00:11:14.206Z,11.57
2023-01-26T00:13:41.384Z,11.13
2023-01-26T00:16:13.680Z,12.43
2023-01-26T00:18:42.729Z,10.55
2023-01-26T00:21:13.675Z,12.30
2023-01-26T00:23:40.475Z,10.85
2023-01-26T00:26:11.368Z,11.05
2023-01-26T00:28:38.110Z,10.60
2023-01-26T00:31:06.706Z,10.55
2023-01-26T00:33:33.828Z,11.73
2023-01-26T00:36:00.585Z,10.27
2023-01-26T00:38:27.549Z,11.27
2023-01-26T00:40:54.406Z,11.35
2023-01-26T00:43:21.587Z,10.68
2023-01-26T00:45:49.525Z,11.05
2023-01-26T00:48:16.695Z,10.85
2023-01-26T00:50:43.542Z,10.57
2023-01-26T00:53:10.883Z,9.88
2023-01-26T00:55:37.545Z,10.27
2023-01-26T00:58:06.703Z,9.75
2023-01-26T01:00:35.282Z,9.07
2023-01-26T01:03:02.412Z,9.10
2023-01-26T01:05:30.488Z,10.65
2023-01-26T01:07:57.839Z,11.57
2023-01-26T01:10:27.773Z,9.38
2023-01-26T01:12:55.411Z,8.95
2023-01-26T01:15:22.191Z,8.88
2023-01-26T01:17:49.071Z,9.93
2023-01-26T01:20:16.291Z,9.35
2023-01-26T01:22:43.023Z,8.95
2023-01-26T01:25:10.184Z,7.88
2023-01-26T01:27:36.593Z,7.72
2023-01-26T01:30:07.914Z,7.40
2023-01-26T01:32:36.436Z,7.65
2023-01-26T01:35:04.102Z,8.20
2023-01-26T01:37:30.982Z,7.20
2023-01-26T01:39:57.717Z,8.20
2023-01-26T01:42:26.120Z,7.72
2023-01-26T01:45:26.907Z,8.18
2023-01-26T01:48:03.743Z,8.05
2023-01-26T01:50:37.300Z,7.57
2023-01-26T01:55:32.203Z,7.47
2023-01-26T01:58:01.848Z,7.60
2023-01-26T02:00:29.535Z,8.63
2023-01-26T02:03:11.975Z,9.68
2023-01-26T02:05:54.367Z,7.80
2023-01-26T02:08:25.955Z,8.43
2023-01-26T02:10:55.549Z,7.63
2023-01-26T02:13:24.153Z,7.00
2023-01-26T02:15:52.105Z,7.88
2023-01-26T02:18:19.277Z,8.50
2023-01-26T02:21:02.937Z,7.32
2023-01-26T02:23:42.462Z,8.10
2023-01-26T02:26:12.296Z,8.27
2023-01-26T02:28:40.212Z,8.15
2023-01-26T02:31:08.214Z,7.47
2023-01-26T02:33:35.322Z,8.48
2023-01-26T02:36:03.512Z,8.40
2023-01-26T02:38:42.726Z,7.55
2023-01-26T02:41:13.189Z,7.13
2023-01-26T02:43:41.054Z,7.47
2023-01-26T02:46:07.683Z,7.00
2023-01-26T02:48:53.074Z,6.70
2023-01-26T02:51:19.780Z,6.22
2023-01-26T02:53:46.600Z,6.10
2023-01-26T02:56:13.386Z,6.70
2023-01-26T02:58:39.999Z,6.72
2023-01-26T03:01:06.828Z,6.35
2023-01-26T03:03:42.550Z,6.07
2023-01-26T03:06:10.974Z,5.85
2023-01-26T03:08:38.989Z,5.85
2023-01-26T03:11:07.322Z,5.22
2023-01-26T03:13:34.249Z,4.63
2023-01-26T03:16:07.217Z,6.70
2023-01-26T03:18:55.334Z,5.72
2023-01-26T03:21:41.323Z,5.03
2023-01-26T03:24:32.109Z,4.82
2023-01-26T03:27:18.801Z,5.63
2023-01-26T03:29:46.581Z,5.20
2023-01-26T03:32:13.891Z,5.32
2023-01-26T03:34:40.681Z,5.40
2023-01-26T03:37:07.417Z,5.28
2023-01-26T03:39:52.841Z,4.70
2023-01-26T03:42:38.211Z,4.85
2023-01-26T03:45:25.033Z,5.00
2023-01-26T03:48:10.129Z,4.72
2023-01-26T03:50:55.843Z,5.45
2023-01-26T03:53:44.497Z,4.90
2023-01-26T03:56:27.452Z,5.80
2023-01-26T03:58:56.268Z,5.63
2023-01-26T04:01:28.331Z,4.70
2023-01-26T04:04:15.650Z,4.50
2023-01-26T04:07:02.981Z,4.07
2023-01-26T04:09:30.316Z,4.75
2023-01-26T04:11:59.314Z,5.38
2023-01-26T04:14:49.692Z,5.30
2023-01-26T04:17:37.629Z,4.78
2023-01-26T04:20:24.994Z,4.78
2023-01-26T04:22:51.857Z,4.63
2023-01-26T04:25:20.511Z,4.25
2023-01-26T04:27:47.141Z,4.53
2023-01-26T04:30:19.143Z,5.03
2023-01-26T04:32:49.257Z,4.80
2023-01-26T04:35:16.277Z,4.60
2023-01-26T04:37:43.626Z,4.00
2023-01-26T04:40:11.878Z,5.15
2023-01-26T04:42:39.033Z,4.93
2023-01-26T04:45:06.492Z,4.25
2023-01-26T04:47:33.128Z,5.10
2023-01-26T04:49:59.800Z,4.35
2023-01-26T04:52:27.002Z,4.32
2023-01-26T04:54:53.718Z,5.72
2023-01-26T04:57:21.168Z,4.22
2023-01-26T04:59:49.270Z,4.90
2023-01-26T05:02:16.024Z,4.63
2023-01-26T05:04:42.636Z,4.55
2023-01-26T05:07:09.354Z,5.38
2023-01-26T05:09:35.983Z,4.43
2023-01-26T05:12:22.657Z,4.15
2023-01-26T05:14:49.975Z,3.95
2023-01-26T05:17:16.778Z,4.20
2023-01-26T05:19:43.424Z,5.22
2023-01-26T05:22:12.519Z,4.47
2023-01-26T05:24:39.366Z,5.82
2023-01-26T05:27:21.776Z,4.68
2023-01-26T05:29:55.039Z,4.00
2023-01-26T05:32:22.252Z,4.50
2023-01-26T05:34:49.231Z,4.72
2023-01-26T05:37:16.274Z,3.60
2023-01-26T05:39:42.993Z,4.05
2023-01-26T05:42:12.147Z,4.15
2023-01-26T05:44:39.570Z,3.92
2023-01-26T05:47:06.378Z,4.18
2023-01-26T05:49:32.954Z,5.10
2023-01-26T05:51:59.735Z,4.40
2023-01-26T05:54:26.494Z,5.82
2023-01-26T05:56:53.633Z,5.38
2023-01-26T05:59:20.140Z,5.28
2023-01-26T06:01:46.781Z,4.85
2023-01-26T06:04:13.480Z,5.45
2023-01-26T06:06:40.165Z,4.38
2023-01-26T06:09:07.446Z,4.60
2023-01-26T06:11:34.407Z,4.75
2023-01-26T06:14:01.320Z,3.88
2023-01-26T06:16:28.318Z,5.03
2023-01-26T06:18:55.386Z,4.32
2023-01-26T06:21:22.295Z,3.70
2023-01-26T06:23:49.123Z,5.18
2023-01-26T06:26:16.242Z,6.97
2023-01-26T06:28:42.997Z,5.13
2023-01-26T06:31:10.937Z,4.93
2023-01-26T06:33:38.842Z,4.38
2023-01-26T06:36:13.430Z,4.15
2023-01-26T06:38:46.297Z,4.35
2023-01-26T06:41:12.881Z,4.60
2023-01-26T06:43:39.707Z,4.35
2023-01-26T06:46:07.183Z,4.38
2023-01-26T06:48:35.578Z,4.60
2023-01-26T06:51:44.247Z,4.57
2023-01-26T06:54:12.908Z,4.60
2023-01-26T06:56:40.410Z,4.38
2023-01-26T06:59:07.607Z,5.22
2023-01-26T07:01:38.039Z,5.15
2023-01-26T07:04:04.913Z,5.47
2023-01-26T07:06:31.417Z,5.68
2023-01-26T07:08:58.080Z,6.03
2023-01-26T07:11:26.339Z,5.90
2023-01-26T07:13:52.920Z,5.28
2023-01-26T07:16:19.545Z,6.43
2023-01-26T07:18:46.184Z,6.53
2023-01-26T07:21:16.192Z,6.18
2023-01-26T07:23:42.941Z,5.35
2023-01-26T07:26:09.915Z,5.38
2023-01-26T07:28:38.655Z,5.25
2023-01-26T07:31:08.695Z,5.65
2023-01-26T07:33:36.114Z,5.38
2023-01-26T07:36:04.078Z,5.68
2023-01-26T07:38:31.130Z,6.03
2023-01-26T07:40:58.375Z,4.45
2023-01-26T07:43:25.026Z,5.68
2023-01-26T07:45:53.948Z,5.43
2023-01-26T07:48:28.394Z,5.50
2023-01-26T07:50:58.358Z,5.38
2023-01-26T07:53:26.497Z,5.13
2023-01-26T07:55:53.433Z,5.40
2023-01-26T07:58:20.448Z,6.47
2023-01-26T08:00:47.366Z,5.75
2023-01-26T08:03:14.512Z,6.47
2023-01-26T08:05:43.293Z,7.15
2023-01-26T08:08:10.292Z,6.22
2023-01-26T08:10:37.228Z,6.97
2023-01-26T08:13:04.184Z,6.60
2023-01-26T08:15:31.337Z,6.88
2023-01-26T08:18:03.886Z,5.45
2023-01-26T08:20:31.365Z,6.03
2023-01-26T08:23:00.265Z,6.55
2023-01-26T08:25:27.287Z,6.53
2023-01-26T08:27:57.067Z,6.63
2023-01-26T08:30:24.831Z,5.93
2023-01-26T08:32:51.949Z,7.78
2023-01-26T08:35:18.753Z,6.38
2023-01-26T08:37:45.461Z,6.38
2023-01-26T08:40:13.034Z,6.85
2023-01-26T08:42:39.976Z,7.15
2023-01-26T08:45:07.230Z,7.85
2023-01-26T08:47:34.049Z,10.88
2023-01-26T08:50:00.704Z,8.32
2023-01-26T08:52:27.540Z,8.10
2023-01-26T08:54:54.514Z,8.60
2023-01-26T08:57:21.854Z,9.20
2023-01-26T08:59:48.393Z,9.63
2023-01-26T09:02:15.165Z,8.70
2023-01-26T09:04:42.135Z,9.95
2023-01-26T09:07:10.211Z,10.18
2023-01-26T09:09:37.826Z,9.18
2023-01-26T09:12:05.057Z,9.63
2023-01-26T09:14:31.731Z,10.10
2023-01-26T09:16:58.463Z,10.00
2023-01-26T09:19:25.157Z,9.48
2023-01-26T09:21:55.009Z,9.25
2023-01-26T09:24:22.341Z,9.40
2023-01-26T09:26:48.907Z,9.63
2023-01-26T09:29:16.570Z,9.73
2023-01-26T09:31:43.356Z,9.57
2023-01-26T09:34:10.004Z,9.98
2023-01-26T09:36:41.544Z,9.05
2023-01-26T09:39:08.863Z,9.93
2023-01-26T09:42:11.169Z,10.55
2023-01-26T09:44:48.452Z,9.73
2023-01-26T09:47:33.943Z,9.38
2023-01-26T09:50:18.148Z,9.45
2023-01-26T09:52:56.828Z,9.63
2023-01-26T09:55:24.885Z,9.60
2023-01-26T09:57:59.808Z,9.95
2023-01-26T10:00:35.599Z,10.07
2023-01-26T10:03:40.443Z,10.20
2023-01-26T10:06:23.316Z,10.32
2023-01-26T10:08:50.299Z,10.38
2023-01-26T10:11:32.446Z,11.50
2023-01-26T10:14:17.848Z,9.35
2023-01-26T10:16:48.666Z,9.85
2023-01-26T10:19:39.981Z,9.68
2023-01-26T10:22:17.215Z,11.10
2023-01-26T10:24:49.392Z,10.55
2023-01-26T10:27:16.003Z,10.25
2023-01-26T10:29:42.708Z,9.73
2023-01-26T10:32:18.447Z,10.60
2023-01-26T10:34:50.224Z,10.90
2023-01-26T10:37:29.896Z,10.38
2023-01-26T10:40:10.937Z,10.82
2023-01-26T10:42:38.730Z,11.57
2023-01-26T10:45:27.920Z,11.38
2023-01-26T10:48:16.914Z,11.15
2023-01-26T10:50:44.182Z,10.35
2023-01-26T10:53:29.803Z,11.02
2023-01-26T10:56:04.652Z,10.77
2023-01-26T10:58:52.937Z,10.25
2023-01-26T11:01:23.233Z,9.73
2023-01-26T11:04:07.773Z,10.55
2023-01-26T11:06:35.439Z,10.60
2023-01-26T11:09:11.001Z,11.50
2023-01-26T11:11:37.817Z,10.65
2023-01-26T11:14:19.855Z,10.43
2023-01-26T11:16:53.898Z,11.80
2023-01-26T11:19:39.501Z,10.77
2023-01-26T11:22:09.293Z,11.68
2023-01-26T11:25:08.041Z,11.20
2023-01-26T11:27:51.705Z,11.02
2023-01-26T11:30:54.576Z,9.43
2023-01-26T11:33:35.571Z,9.73
2023-01-26T11:36:30.437Z,10.35
2023-01-26T11:39:03.131Z,10.07
2023-01-26T11:41:42.028Z,11.50
2023-01-26T11:44:24.299Z,11.02
2023-01-26T11:47:17.011Z,10.75
2023-01-26T11:50:24.472Z,10.68
2023-01-26T11:52:56.532Z,10.77
2023-01-26T11:55:26.289Z,12.63
2023-01-26T11:58:05.718Z,10.35
2023-01-26T12:00:41.008Z,11.85
2023-01-26T12:03:20.945Z,9.52
2023-01-26T12:05:52.438Z,10.45
2023-01-26T12:08:26.315Z,9.80
2023-01-26T12:11:22.863Z,10.98
2023-01-26T12:14:08.606Z,10.63
2023-01-26T12:17:15.526Z,10.68
2023-01-26T12:20:04.972Z,10.50
2023-01-26T12:22:58.226Z,10.05
2023-01-26T12:25:31.330Z,10.17
2023-01-26T12:28:31.584Z,10.65
2023-01-26T12:31:26.767Z,10.25
2023-01-26T12:33:55.988Z,9.63
2023-01-26T12:36:40.923Z,10.35
2023-01-26T12:39:13.531Z,10.70
2023-01-26T12:42:19.060Z,10.20
2023-01-26T12:44:56.976Z,11.15
2023-01-26T12:47:40.447Z,10.05
2023-01-26T12:50:21.528Z,10.60
2023-01-26T12:53:06.388Z,10.63
2023-01-26T12:55:42.044Z,11.05
2023-01-26T12:58:29.778Z,9.90
2023-01-26T13:01:03.212Z,12.25
2023-01-26T13:03:38.516Z,10.27
2023-01-26T13:06:11.193Z,10.63
2023-01-26T13:08:37.641Z,10.88
2023-01-26T13:11:09.661Z,9.93
2023-01-26T13:13:54.419Z,10.35
2023-01-26T13:16:22.130Z,9.35
2023-01-26T13:18:52.023Z,11.02
2023-01-26T13:21:40.602Z,9.98
2023-01-26T13:24:16.187Z,9.95
2023-01-26T13:26:47.155Z,10.00
2023-01-26T13:29:25.760Z,10.75
2023-01-26T13:31:54.910Z,10.25
2023-01-26T13:34:49.358Z,9.70
2023-01-26T13:37:30.989Z,10.95
2023-01-26T13:40:02.354Z,10.20
2023-01-26T13:42:52.046Z,9.95
2023-01-26T13:45:28.779Z,10.88
2023-01-26T13:47:58.088Z,10.48
2023-01-26T13:50:33.405Z,11.95
2023-01-26T13:53:00.606Z,10.27
2023-01-26T13:55:30.725Z,11.85
2023-01-26T13:58:23.780Z,10.77
2023-01-26T14:01:02.172Z,11.32
2023-01-26T14:03:31.078Z,10.85
2023-01-26T14:06:20.018Z,10.32
2023-01-26T14:08:55.973Z,11.30
2023-01-26T14:11:25.119Z,10.85
2023-01-26T14:13:56.217Z,9.60
2023-01-26T14:16:35.764Z,10.18
2023-01-26T14:19:18.442Z,10.30
2023-01-26T14:21:47.978Z,9.07
2023-01-26T14:24:14.587Z,10.38
2023-01-26T14:26:42.359Z,10.65
2023-01-26T14:29:20.342Z,10.43
2023-01-26T14:31:50.631Z,10.45
2023-01-26T14:34:29.329Z,11.63
2023-01-26T14:37:16.728Z,10.77
2023-01-26T14:39:46.084Z,12.05
2023-01-26T14:42:15.600Z,11.23
2023-01-26T14:44:42.767Z,10.65
2023-01-26T14:47:21.670Z,10.13
2023-01-26T14:49:56.195Z,10.10
2023-01-26T14:52:31.505Z,10.55
2023-01-26T14:55:04.487Z,10.65
2023-01-26T14:57:33.032Z,10.50
2023-01-26T15:00:02.133Z,11.32
2023-01-26T15:02:38.295Z,11.68
2023-01-26T15:05:14.658Z,10.30
2023-01-26T15:07:41.345Z,10.30
2023-01-26T15:10:39.303Z,11.00
2023-01-26T15:13:19.692Z,11.50
2023-01-26T15:15:49.309Z,10.13
2023-01-26T15:18:21.426Z,11.23
2023-01-26T15:21:10.886Z,12.27
2023-01-26T15:23:51.837Z,10.82
2023-01-26T15:26:33.082Z,11.63
2023-01-26T15:29:04.407Z,12.45
2023-01-26T15:31:39.246Z,11.10
2023-01-26T15:34:07.454Z,11.13
2023-01-26T15:39:14.410Z,11.70
2023-01-26T15:41:42.559Z,11.53
2023-01-26T15:44:17.948Z,12.32
2023-01-26T15:46:46.454Z,11.70
2023-01-26T15:49:14.376Z,11.32
2023-01-26T15:51:41.503Z,11.30
2023-01-26T15:54:11.418Z,11.57
2023-01-26T15:56:38.291Z,11.35
2023-01-26T15:59:05.388Z,10.55
2023-01-26T16:01:32.460Z,11.13
2023-01-26T16:03:59.489Z,11.52
2023-01-26T16:06:31.952Z,11.93
2023-01-26T16:08:59.413Z,12.50
2023-01-26T16:11:31.724Z,12.73
2023-01-26T16:14:03.888Z,10.88
2023-01-26T16:16:32.594Z,12.13
2023-01-26T16:18:59.795Z,11.88
2023-01-26T16:21:31.521Z,11.43
2023-01-26T16:23:58.495Z,13.27
2023-01-26T16:26:26.024Z,11.88
2023-01-26T16:28:52.596Z,12.50
2023-01-26T16:31:30.912Z,13.32
2023-01-26T16:33:58.621Z,12.60
2023-01-26T16:36:25.378Z,13.73
2023-01-26T16:38:51.964Z,15.45
2023-01-26T16:41:27.839Z,13.23
2023-01-26T16:43:56.802Z,14.23
2023-01-26T16:46:24.103Z,14.13
2023-01-26T16:48:51.120Z,13.45
2023-01-26T16:51:25.127Z,13.98
2023-01-26T16:53:52.414Z,13.95
2023-01-26T16:56:19.533Z,13.52
2023-01-26T16:58:56.339Z,12.70
2023-01-26T17:01:36.879Z,14.63
2023-01-26T17:04:04.465Z,13.85
2023-01-26T17:06:31.505Z,14.55
2023-01-26T17:08:58.184Z,13.65
2023-01-26T17:11:28.080Z,15.00
2023-01-26T17:13:57.125Z,14.13
2023-01-26T17:16:29.694Z,14.68
2023-01-26T17:18:56.551Z,16.10
2023-01-26T17:21:23.847Z,14.65
2023-01-26T17:23:52.397Z,15.75
2023-01-26T17:26:20.847Z,14.02
2023-01-26T17:28:49.462Z,15.25
2023-01-26T17:31:18.255Z,14.98
2023-01-26T17:33:47.071Z,17.30
2023-01-26T17:36:15.007Z,16.02
2023-01-26T17:38:42.185Z,13.85
2023-01-26T17:41:08.975Z,14.48
2023-01-26T17:43:35.775Z,14.38
2023-01-26T17:46:13.462Z,16.83
2023-01-26T17:48:41.098Z,18.20
2023-01-26T17:51:09.928Z,14.73
2023-01-26T17:53:38.486Z,14.63
2023-01-26T17:56:08.258Z,13.80
2023-01-26T17:58:38.145Z,14.05
2023-01-26T18:01:06.515Z,14.27
2023-01-26T18:03:33.889Z,15.90
2023-01-26T18:06:00.642Z,16.35
2023-01-26T18:08:27.637Z,16.00
2023-01-26T18:11:01.539Z,14.85
2023-01-26T18:13:29.195Z,14.45
2023-01-26T18:15:56.012Z,15.98
2023-01-26T18:18:24.261Z,15.88
2023-01-26T18:20:50.949Z,14.25
2023-01-26T18:23:17.975Z,14.75
2023-01-26T18:25:44.785Z,18.35
2023-01-26T18:28:12.238Z,18.88
2023-01-26T18:30:39.030Z,18.50
2023-01-26T18:33:07.206Z,17.98
2023-01-26T18:35:34.565Z,19.77
2023-01-26T18:38:02.264Z,18.45
2023-01-26T18:40:29.156Z,17.42
2023-01-26T18:42:56.701Z,18.50
2023-01-26T18:45:24.040Z,17.42
2023-01-26T18:47:50.887Z,18.55
2023-01-26T18:50:18.091Z,17.10
2023-01-26T18:52:44.878Z,18.15
2023-01-26T18:55:12.007Z,18.83
2023-01-26T18:57:39.066Z,19.20
2023-01-26T19:00:08.296Z,19.02
2023-01-26T19:02:38.292Z,19.08
2023-01-26T19:05:07.213Z,17.17
2023-01-26T19:07:34.405Z,18.17
2023-01-26T19:10:01.031Z,19.83
2023-01-26T19:12:27.773Z,18.90
2023-01-26T19:14:54.465Z,19.45
2023-01-26T19:17:21.129Z,18.73
2023-01-26T19:19:47.839Z,19.20
2023-01-26T19:22:14.468Z,17.70
2023-01-26T19:24:43.035Z,18.50
2023-01-26T19:27:10.030Z,16.92
2023-01-26T19:29:36.566Z,17.27
2023-01-26T19:32:03.283Z,17.30
2023-01-26T19:34:31.915Z,17.20
2023-01-26T19:36:58.798Z,18.73
2023-01-26T19:39:25.297Z,19.92
2023-01-26T19:41:52.521Z,17.83
2023-01-26T19:44:19.442Z,17.40
2023-01-26T19:46:46.234Z,19.20
2023-01-26T19:49:13.565Z,17.88
2023-01-26T19:51:40.116Z,18.60
2023-01-26T19:54:06.793Z,19.60
2023-01-26T19:56:36.479Z,19.15
2023-01-26T19:59:08.563Z,21.13
2023-01-26T20:01:34.989Z,19.25
2023-01-26T20:04:05.213Z,18.55
2023-01-26T20:06:34.487Z,18.60
2023-01-26T20:09:05.996Z,20.25
2023-01-26T20:11:32.783Z,20.33
2023-01-26T20:14:01.984Z,21.17
2023-01-26T20:16:29.703Z,18.98
2023-01-26T20:18:57.786Z,18.33
2023-01-26T20:21:25.226Z,18.13
2023-01-26T20:23:55.445Z,19.95
2023-01-26T20:26:23.467Z,19.63
2023-01-26T20:28:49.967Z,19.05
2023-01-26T20:31:20.028Z,19.80
2023-01-26T20:33:48.416Z,19.65
2023-01-26T20:36:18.268Z,19.35
2023-01-26T20:38:46.476Z,20.42
2023-01-26T20:41:16.876Z,19.70
2023-01-26T20:43:58.058Z,20.00
2023-01-26T20:46:26.125Z,19.55
2023-01-26T20:48:55.808Z,19.83
2023-01-26T20:51:24.693Z,19.80
2023-01-26T20:53:51.474Z,21.45
2023-01-26T20:56:21.001Z,20.45
2023-01-26T20:58:49.067Z,20.42
2023-01-26T21:01:17.032Z,22.02
2023-01-26T21:03:44.450Z,19.10
2023-01-26T21:06:14.119Z,23.02
2023-01-26T21:08:40.885Z,21.02
2023-01-26T21:11:11.325Z,20.27
2023-01-26T21:13:41.173Z,20.80
2023-01-26T21:16:10.537Z,20.52
2023-01-26T21:18:37.166Z,20.00
2023-01-26T21:21:08.489Z,21.13
2023-01-26T21:23:35.706Z,21.55
2023-01-26T21:26:17.189Z,20.23
2023-01-26T21:28:44.316Z,21.42
2023-01-26T21:31:16.560Z,19.33
2023-01-26T21:33:45.695Z,20.95
2023-01-26T21:36:17.339Z,20.50
2023-01-26T21:38:45.858Z,21.25
2023-01-26T21:41:33.389Z,21.88
2023-01-26T21:44:02.215Z,21.52
2023-01-26T21:46:29.376Z,20.45
2023-01-26T21:48:56.328Z,20.73
2023-01-26T21:51:42.044Z,22.55
2023-01-26T21:54:08.614Z,22.25
2023-01-26T21:56:36.673Z,21.40
2023-01-26T21:59:07.750Z,23.27
2023-01-26T22:01:37.165Z,24.42
2023-01-26T22:04:08.110Z,23.98
2023-01-26T22:06:35.912Z,25.88
2023-01-26T22:09:03.791Z,22.35
2023-01-26T22:11:30.398Z,23.65
2023-01-26T22:13:57.247Z,23.10
2023-01-26T22:16:23.937Z,22.48
2023-01-26T22:18:50.696Z,22.08
2023-01-26T22:21:18.829Z,21.63
2023-01-26T22:23:47.326Z,21.23
2023-01-26T22:26:19.762Z,21.92
2023-01-26T22:28:54.027Z,21.65
2023-01-26T22:31:25.470Z,21.67
2023-01-26T22:33:52.930Z,22.52
2023-01-26T22:36:20.606Z,23.77
2023-01-26T22:38:47.373Z,20.60
2023-01-26T22:41:19.734Z,21.08
2023-01-26T22:43:51.553Z,22.02
2023-01-26T22:46:20.195Z,19.60
2023-01-26T22:48:47.340Z,21.60
2023-01-26T22:51:20.647Z,19.50
2023-01-26T22:53:49.762Z,20.83
2023-01-26T22:56:16.750Z,19.98
2023-01-26T22:58:57.009Z,19.83
2023-01-26T23:01:26.299Z,19.30
2023-01-26T23:03:54.752Z,20.13
2023-01-26T23:06:22.387Z,18.60
2023-01-26T23:08:49.825Z,17.83
2023-01-26T23:11:16.731Z,17.10
2023-01-26T23:13:44.638Z,19.05
2023-01-26T23:16:11.985Z,18.17
2023-01-26T23:18:39.176Z,17.90
2023-01-26T23:21:07.209Z,18.63
2023-01-26T23:23:36.729Z,18.92
2023-01-26T23:26:04.022Z,20.08
2023-01-26T23:28:33.470Z,19.55
2023-01-26T23:31:01.438Z,18.98
2023-01-26T23:33:30.101Z,17.00
2023-01-26T23:36:00.590Z,18.30
2023-01-26T23:38:28.947Z,17.75
2023-01-26T23:40:55.762Z,17.27
2023-01-26T23:43:23.268Z,16.02
2023-01-26T23:45:50.618Z,16.73
2023-01-26T23:48:18.592Z,17.05
2023-01-26T23:50:46.284Z,17.10
2023-01-26T23:53:13.210Z,17.90
2023-01-26T23:55:41.811Z,18.70
2023-01-26T23:58:09.670Z,18.17
